Time;durP1;ratioP1;P1;durP2;ratioP2;P2;SDS_P1;SDS_P2;PMS_P1;PMS_P2;Temp;Humidity;BMP_temperature;BMP_pressure;BME280_temperature;BME280_humidity;BME280_pressure;Samples;Min_cycle;Max_cycle;Signal;HPM_P1;HPM_P2
2021/06/22 00:01:21;;;;;;;6.90;5.03;;;24.60;80.80;;;;;;5115652;28;20528;-69
2021/06/22 00:04:05;;;;;;;8.82;5.35;;;24.50;81.30;;;;;;5097920;28;20035;-69
2021/06/22 00:06:49;;;;;;;9.75;5.43;;;24.40;82.40;;;;;;5103101;28;20035;-69
2021/06/22 00:09:33;;;;;;;8.18;6.25;;;24.30;82.40;;;;;;5114827;28;20123;-70
2021/06/22 00:12:17;;;;;;;;;;;24.30;83.80;;;;;;5100337;28;20054;-69
2021/06/22 00:15:04;;;;;;;7.70;5.30;;;24.20;83.20;;;;;;5114902;28;19911;-64
2021/06/22 00:17:48;;;;;;;8.25;6.22;;;24.10;84.40;;;;;;5100219;28;20106;-69
2021/06/22 00:20:33;;;;;;;;;;;24.10;85.10;;;;;;5114620;28;20399;-70
2021/06/22 00:23:17;;;;;;;9.27;6.00;;;24.00;85.70;;;;;;5115220;28;19974;-74
2021/06/22 00:26:01;;;;;;;15.35;6.57;;;24.00;86.20;;;;;;5113301;28;20108;-71
2021/06/22 00:28:45;;;;;;;10.93;7.40;;;23.90;87.00;;;;;;5113049;28;20172;-69
2021/06/22 00:31:29;;;;;;;10.13;5.93;;;23.80;88.70;;;;;;5094546;28;20058;-71
2021/06/22 00:34:13;;;;;;;12.02;6.93;;;23.70;89.50;;;;;;5104086;28;20104;-70
2021/06/22 00:36:57;;;;;;;13.05;6.43;;;23.60;89.60;;;;;;5118113;28;20065;-70
2021/06/22 00:39:42;;;;;;;7.43;6.63;;;23.60;89.50;;;;;;5114264;28;20533;-69
2021/06/22 00:42:26;;;;;;;10.45;6.88;;;23.60;89.90;;;;;;5099632;28;20080;-69
2021/06/22 00:45:12;;;;;;;10.27;7.20;;;23.60;90.40;;;;;;5117031;28;20056;-71
2021/06/22 00:47:57;;;;;;;15.82;7.63;;;23.60;90.70;;;;;;5117099;28;20054;-71
2021/06/22 00:50:41;;;;;;;;;;;23.60;90.80;;;;;;5099040;28;20039;-71
2021/06/22 00:53:26;;;;;;;10.90;6.65;;;23.60;90.10;;;;;;5119632;28;19926;-71
2021/06/22 00:56:10;;;;;;;11.80;8.07;;;23.60;90.70;;;;;;5120246;28;20058;-71
2021/06/22 00:58:54;;;;;;;14.32;8.00;;;23.50;91.10;;;;;;5119761;28;20034;-71
2021/06/22 01:01:38;;;;;;;10.23;5.78;;;23.50;91.70;;;;;;5114026;28;20089;-70
2021/06/22 01:04:22;;;;;;;11.77;8.05;;;23.30;91.60;;;;;;5121024;28;20050;-71
2021/06/22 01:07:06;;;;;;;9.27;7.47;;;23.30;91.80;;;;;;5119151;28;20415;-71
2021/06/22 01:09:51;;;;;;;;;;;23.30;91.90;;;;;;5114411;28;20031;-71
2021/06/22 01:12:35;;;;;;;9.60;7.50;;;23.30;91.30;;;;;;5114260;28;19919;-71
2021/06/22 01:15:21;;;;;;;11.50;6.45;;;23.30;91.80;;;;;;5114084;28;20038;-71
2021/06/22 01:18:06;;;;;;;12.98;7.40;;;23.30;91.80;;;;;;5114649;28;20564;-71
2021/06/22 01:20:55;;;;;;;10.25;6.53;;;23.30;92.00;;;;;;5113136;28;20043;-71
2021/06/22 01:23:39;;;;;;;11.68;7.15;;;23.40;91.90;;;;;;5114586;28;20092;-71
2021/06/22 01:26:23;;;;;;;8.68;7.25;;;23.40;92.10;;;;;;5114163;28;20038;-71
2021/06/22 01:29:08;;;;;;;10.63;7.43;;;23.30;92.00;;;;;;5112665;28;20092;-71
2021/06/22 01:31:54;;;;;;;12.05;7.25;;;23.30;92.00;;;;;;5112559;28;20552;-70
2021/06/22 01:34:39;;;;;;;13.07;6.88;;;23.40;92.00;;;;;;5099259;28;20035;-71
2021/06/22 01:37:24;;;;;;;8.20;7.07;;;23.40;91.90;;;;;;5113797;28;20042;-71
2021/06/22 01:40:08;;;;;;;9.95;6.90;;;23.40;92.00;;;;;;5113079;28;20093;-70
2021/06/22 01:42:57;;;;;;;14.75;8.05;;;23.40;92.00;;;;;;5098162;28;20101;-71
2021/06/22 01:45:42;;;;;;;12.32;7.63;;;23.30;92.10;;;;;;5093063;28;20027;-70
2021/06/22 01:48:26;;;;;;;10.15;7.38;;;23.30;92.10;;;;;;5106426;28;20043;-71
2021/06/22 01:51:10;;;;;;;12.10;7.93;;;23.30;92.10;;;;;;5093839;28;20062;-70
2021/06/22 01:53:59;;;;;;;10.40;8.15;;;23.10;92.50;;;;;;5113636;28;20034;-70
2021/06/22 01:56:49;;;;;;;11.50;8.02;;;23.00;92.50;;;;;;5112823;28;20058;-70
2021/06/22 01:59:33;;;;;;;11.38;7.43;;;23.00;92.80;;;;;;5113458;28;20046;-69
2021/06/22 02:02:17;;;;;;;10.07;8.13;;;23.00;92.90;;;;;;5112481;28;20437;-70
2021/06/22 02:05:02;;;;;;;11.77;8.38;;;22.90;92.90;;;;;;5096191;28;20058;-70
2021/06/22 02:07:46;;;;;;;9.35;7.75;;;22.90;92.90;;;;;;5111512;28;20049;-70
2021/06/22 02:10:30;;;;;;;13.07;8.68;;;22.90;92.90;;;;;;5113169;28;20035;-71
2021/06/22 02:13:15;;;;;;;11.60;7.80;;;22.90;92.90;;;;;;5112234;28;20568;-70
2021/06/22 02:15:59;;;;;;;11.98;8.95;;;22.90;92.90;;;;;;5112818;28;20118;-73
2021/06/22 02:18:43;;;;;;;11.15;8.05;;;22.90;93.00;;;;;;5077381;28;20062;-71
2021/06/22 02:21:27;;;;;;;12.93;7.72;;;22.80;92.90;;;;;;5096106;28;20034;-70
2021/06/22 02:24:11;;;;;;;8.43;7.43;;;22.80;93.00;;;;;;5113287;28;20118;-70
2021/06/22 02:26:55;;;;;;;10.88;7.80;;;22.80;93.20;;;;;;5112300;28;20077;-70
2021/06/22 02:29:39;;;;;;;11.40;7.95;;;22.80;93.20;;;;;;5111871;28;20591;-71
2021/06/22 02:32:24;;;;;;;9.05;7.60;;;22.70;93.30;;;;;;5111125;28;20518;-70
2021/06/22 02:35:11;;;;;;;11.13;7.80;;;22.70;93.20;;;;;;5112811;28;20042;-70
2021/06/22 02:37:56;;;;;;;9.95;7.05;;;22.80;93.30;;;;;;5111982;28;20177;-71
2021/06/22 02:40:40;;;;;;;;;;;22.80;93.20;;;;;;5113018;28;20066;-71
2021/06/22 02:43:25;;;;;;;12.52;7.95;;;22.90;93.20;;;;;;5112560;28;19914;-70
2021/06/22 02:46:10;;;;;;;9.35;7.22;;;22.80;93.00;;;;;;5112017;28;20388;-71
2021/06/22 02:48:54;;;;;;;13.73;7.80;;;22.80;93.00;;;;;;5112725;28;20074;-69
2021/06/22 02:51:38;;;;;;;12.25;7.45;;;22.80;93.00;;;;;;5111558;28;20392;-69
2021/06/22 02:54:23;;;;;;;10.18;7.13;;;22.90;92.90;;;;;;5112452;28;20038;-69
2021/06/22 02:57:11;;;;;;;9.15;8.23;;;22.80;92.90;;;;;;5111865;28;20527;-69
2021/06/22 02:59:55;;;;;;;9.98;7.63;;;22.80;92.90;;;;;;5096946;28;20039;-69
2021/06/22 03:02:39;;;;;;;6.73;6.03;;;22.80;92.80;;;;;;5095345;28;22622;-69
2021/06/22 03:05:24;;;;;;;7.70;6.88;;;22.70;92.60;;;;;;5111822;28;20298;-69
2021/06/22 03:08:07;;;;;;;8.63;6.57;;;22.60;92.60;;;;;;5111770;28;20060;-69
2021/06/22 03:10:51;;;;;;;7.75;6.53;;;22.60;92.70;;;;;;5112183;28;20422;-69
2021/06/22 03:13:35;;;;;;;10.90;7.28;;;22.60;92.60;;;;;;5096767;28;20077;-68
2021/06/22 03:16:19;;;;;;;9.52;7.22;;;22.50;92.60;;;;;;5096038;28;20037;-69
2021/06/22 03:19:03;;;;;;;9.83;7.50;;;22.50;92.60;;;;;;5112328;28;20077;-69
2021/06/22 03:21:48;;;;;;;10.88;5.55;;;22.50;92.60;;;;;;5110596;28;20031;-66
2021/06/22 03:24:32;;;;;;;8.13;6.80;;;22.40;92.60;;;;;;5111993;28;20088;-71
2021/06/22 03:27:16;;;;;;;8.10;6.68;;;22.50;92.30;;;;;;5096029;28;20556;-69
2021/06/22 03:30:00;;;;;;;9.18;6.90;;;22.50;92.30;;;;;;5095377;28;20042;-70
2021/06/22 03:32:46;;;;;;;8.18;6.28;;;22.50;92.20;;;;;;5109825;28;20050;-69
2021/06/22 03:35:30;;;;;;;10.07;7.68;;;22.50;92.10;;;;;;5111696;28;20059;-75
2021/06/22 03:38:14;;;;;;;11.52;7.57;;;22.50;92.10;;;;;;5111285;28;20517;-70
2021/06/22 03:40:59;;;;;;;12.27;7.80;;;22.40;92.10;;;;;;5111206;28;20442;-71
2021/06/22 03:43:43;;;;;;;9.90;7.20;;;22.30;92.20;;;;;;5094703;28;20391;-71
2021/06/22 03:46:27;;;;;;;11.23;7.82;;;22.30;92.30;;;;;;5111077;28;20089;-74
2021/06/22 03:49:11;;;;;;;13.80;8.43;;;22.20;92.30;;;;;;5112071;28;20058;-76
2021/06/22 03:51:56;;;;;;;10.05;7.05;;;22.20;92.40;;;;;;5111162;28;20039;-77
2021/06/22 03:54:40;;;;;;;11.30;7.70;;;22.20;92.50;;;;;;5111750;28;20639;-72
2021/06/22 03:57:24;;;;;;;11.98;8.35;;;22.30;92.60;;;;;;5108797;28;20572;-71
2021/06/22 04:00:09;;;;;;;8.88;7.70;;;22.30;92.50;;;;;;5102012;28;20080;-72
2021/06/22 04:02:55;;;;;;;12.38;7.78;;;22.30;92.50;;;;;;5112404;28;20462;-71
2021/06/22 04:05:39;;;;;;;10.13;7.75;;;22.30;92.60;;;;;;5131682;28;20115;-72
2021/06/22 04:08:24;;;;;;;9.75;8.25;;;22.30;92.50;;;;;;5109860;28;20039;-72
2021/06/22 04:11:08;;;;;;;10.60;8.00;;;22.30;92.50;;;;;;5110838;28;20085;-72
2021/06/22 04:13:52;;;;;;;11.48;7.22;;;22.20;92.60;;;;;;5091193;28;20074;-73
2021/06/22 04:16:36;;;;;;;8.98;6.82;;;22.20;92.60;;;;;;5095866;28;20153;-72
2021/06/22 04:19:21;;;;;;;9.50;7.30;;;22.20;92.50;;;;;;5111753;28;20054;-72
2021/06/22 04:22:05;;;;;;;8.65;7.10;;;22.20;92.70;;;;;;5110754;28;20073;-72
2021/06/22 04:24:49;;;;;;;11.02;8.73;;;22.20;92.60;;;;;;5111552;28;20035;-72
2021/06/22 04:27:33;;;;;;;11.00;7.88;;;22.30;92.60;;;;;;5109990;28;20082;-73
2021/06/22 04:30:18;;;;;;;9.77;7.15;;;22.20;92.60;;;;;;5108932;28;20559;-73
2021/06/22 04:33:04;;;;;;;8.52;7.00;;;22.20;92.70;;;;;;5111017;28;20127;-72
2021/06/22 04:35:48;;;;;;;7.68;6.63;;;22.10;92.70;;;;;;5109661;28;20384;-73
2021/06/22 04:38:32;;;;;;;11.98;8.68;;;22.30;92.70;;;;;;5097640;28;20433;-73
2021/06/22 04:41:16;;;;;;;11.27;7.97;;;22.30;92.60;;;;;;5115782;27;20049;-73
2021/06/22 04:44:00;;;;;;;14.35;8.23;;;22.40;92.60;;;;;;5113581;28;20464;-73
2021/06/22 04:46:44;;;;;;;22.37;9.33;;;22.50;92.50;;;;;;5113905;28;20043;-73
2021/06/22 04:49:28;;;;;;;19.52;10.18;;;22.50;92.40;;;;;;5114525;28;20627;-75
2021/06/22 04:52:12;;;;;;;11.25;8.52;;;22.50;92.30;;;;;;5113406;28;20070;-70
2021/06/22 04:54:56;;;;;;;22.70;11.07;;;22.50;92.20;;;;;;5114675;28;20034;-74
2021/06/22 04:57:42;;;;;;;15.63;9.68;;;22.60;92.10;;;;;;5112757;28;20046;-82
2021/06/22 05:00:27;;;;;;;21.13;9.75;;;22.60;92.10;;;;;;5114828;28;20030;-69
2021/06/22 05:03:12;;;;;;;22.52;10.73;;;22.60;92.00;;;;;;5113727;28;20066;-72
2021/06/22 05:05:56;;;;;;;22.08;11.27;;;22.70;91.90;;;;;;5114233;28;20042;-73
2021/06/22 05:08:40;;;;;;;22.92;13.88;;;22.70;91.80;;;;;;5094416;28;20449;-71
2021/06/22 05:11:24;;;;;;;25.40;15.00;;;22.70;91.70;;;;;;5096985;28;20081;-71
2021/06/22 05:14:08;;;;;;;30.58;15.07;;;22.60;91.70;;;;;;5114379;28;20031;-71
2021/06/22 05:16:52;;;;;;;29.87;18.20;;;22.50;91.80;;;;;;5113818;28;20035;-68
2021/06/22 05:19:36;;;;;;;26.67;16.05;;;22.50;91.80;;;;;;5114227;28;20107;-71
2021/06/22 05:22:20;;;;;;;22.13;14.77;;;22.40;91.90;;;;;;5113492;28;20061;-70
2021/06/22 05:25:05;;;;;;;24.70;16.17;;;22.40;91.90;;;;;;5114358;28;20030;-71
2021/06/22 05:27:49;;;;;;;22.38;14.95;;;22.40;91.90;;;;;;5113426;28;20058;-71
2021/06/22 05:30:33;;;;;;;23.03;14.37;;;22.30;91.80;;;;;;5111259;28;20096;-71
2021/06/22 05:33:17;;;;;;;26.97;16.83;;;22.20;91.90;;;;;;5112723;28;20431;-71
2021/06/22 05:36:01;;;;;;;23.50;14.60;;;22.10;92.00;;;;;;5097150;28;20287;-70
2021/06/22 05:38:46;;;;;;;25.40;14.02;;;22.00;92.10;;;;;;5093490;28;20076;-70
2021/06/22 05:41:30;;;;;;;23.10;15.10;;;22.00;92.20;;;;;;5096942;28;20558;-70
2021/06/22 05:44:14;;;;;;;21.08;14.20;;;22.00;92.10;;;;;;5113349;28;20030;-70
2021/06/22 05:46:58;;;;;;;19.05;12.77;;;22.00;92.10;;;;;;5113231;28;20100;-71
2021/06/22 05:49:44;;;;;;;20.08;12.15;;;22.00;92.20;;;;;;5110560;28;20031;-71
2021/06/22 05:52:30;;;;;;;16.25;11.15;;;22.00;92.20;;;;;;5110220;28;20036;-71
2021/06/22 05:55:16;;;;;;;16.70;10.88;;;22.00;92.20;;;;;;5113532;28;20399;-70
2021/06/22 05:58:02;;;;;;;17.38;10.80;;;22.00;92.10;;;;;;5112567;28;20096;-71
2021/06/22 06:00:48;;;;;;;15.52;11.70;;;22.00;92.20;;;;;;5112074;28;20518;-72
2021/06/22 06:03:35;;;;;;;19.05;9.55;;;21.90;92.10;;;;;;5091580;28;20040;-70
2021/06/22 06:06:20;;;;;;;16.25;10.05;;;21.80;92.30;;;;;;5093642;28;20050;-72
2021/06/22 06:09:06;;;;;;;17.35;9.63;;;21.80;92.30;;;;;;5112025;28;20016;-72
2021/06/22 06:11:53;;;;;;;17.80;8.50;;;21.70;92.30;;;;;;5110524;28;20051;-72
2021/06/22 06:14:39;;;;;;;16.80;11.10;;;21.80;92.20;;;;;;5110928;28;20380;-69
2021/06/22 06:17:25;;;;;;;15.30;10.35;;;21.80;92.10;;;;;;5109088;28;20032;-70
2021/06/22 06:20:13;;;;;;;16.10;8.75;;;21.70;92.20;;;;;;5110798;28;20035;-70
2021/06/22 06:22:58;;;;;;;19.50;10.90;;;21.60;92.30;;;;;;5112020;28;20034;-69
2021/06/22 06:25:45;;;;;;;14.13;10.07;;;21.60;92.50;;;;;;5111610;28;20031;-69
2021/06/22 06:28:35;;;;;;;18.95;10.57;;;21.60;92.30;;;;;;5110884;28;20031;-70
2021/06/22 06:31:22;;;;;;;17.95;10.82;;;21.60;92.40;;;;;;5109379;28;20527;-69
2021/06/22 06:34:07;;;;;;;14.15;9.77;;;21.70;92.40;;;;;;5111098;28;20059;-70
2021/06/22 06:36:53;;;;;;;19.45;10.55;;;21.70;92.40;;;;;;5109531;28;20031;-69
2021/06/22 06:39:39;;;;;;;14.30;9.95;;;21.70;92.20;;;;;;5110354;28;20495;-69
2021/06/22 06:42:25;;;;;;;14.25;11.13;;;21.70;92.30;;;;;;5110298;28;20118;-68
2021/06/22 06:45:12;;;;;;;15.35;10.32;;;21.70;92.30;;;;;;5111395;28;20068;-68
2021/06/22 06:47:58;;;;;;;15.90;10.05;;;21.60;92.30;;;;;;5111301;28;20028;-69
2021/06/22 06:50:43;;;;;;;13.60;8.70;;;21.60;92.30;;;;;;5109611;28;20026;-69
2021/06/22 06:53:29;;;;;;;14.02;7.85;;;21.60;92.30;;;;;;5109866;28;20412;-70
2021/06/22 06:56:15;;;;;;;11.32;6.15;;;21.60;92.10;;;;;;5109914;28;20023;-70
2021/06/22 06:59:01;;;;;;;11.77;6.05;;;21.60;92.10;;;;;;5110140;28;20028;-70
2021/06/22 07:01:47;;;;;;;8.60;4.70;;;21.60;92.00;;;;;;5110984;28;20020;-70
2021/06/22 07:04:33;;;;;;;10.90;5.80;;;21.70;92.00;;;;;;5110886;28;20122;-69
2021/06/22 07:07:19;;;;;;;8.02;5.65;;;21.70;91.90;;;;;;5110288;28;20140;-68
2021/06/22 07:10:05;;;;;;;7.35;5.05;;;21.70;91.70;;;;;;5095888;28;20088;-69
2021/06/22 07:12:52;;;;;;;8.45;4.85;;;21.60;91.50;;;;;;5110814;28;20507;-69
2021/06/22 07:15:38;;;;;;;7.57;5.30;;;21.70;91.60;;;;;;5110344;28;20030;-69
2021/06/22 07:18:29;;;;;;;7.53;4.50;;;21.70;91.50;;;;;;5095674;28;20067;-69
2021/06/22 07:21:16;;;;;;;9.45;4.28;;;21.70;91.50;;;;;;5110687;28;20020;-69
2021/06/22 07:24:02;;;;;;;7.93;4.63;;;21.80;91.40;;;;;;5111835;28;20027;-69
2021/06/22 07:26:48;;;;;;;8.63;4.63;;;21.90;91.10;;;;;;5109010;28;20028;-68
2021/06/22 07:29:34;;;;;;;9.02;5.40;;;21.90;91.00;;;;;;5109044;28;20035;-69
2021/06/22 07:32:20;;;;;;;6.78;4.93;;;21.90;91.30;;;;;;5108957;28;20065;-67
2021/06/22 07:35:06;;;;;;;9.38;5.38;;;21.90;91.00;;;;;;5111795;28;20019;-69
2021/06/22 07:37:52;;;;;;;8.05;5.18;;;21.90;90.90;;;;;;5110845;28;20036;-69
2021/06/22 07:40:38;;;;;;;8.25;4.60;;;21.90;90.80;;;;;;5109659;28;20054;-69
2021/06/22 07:43:24;;;;;;;10.10;5.32;;;21.90;90.80;;;;;;5105033;28;20491;-68
2021/06/22 07:46:09;;;;;;;5.60;4.55;;;21.90;90.80;;;;;;5088989;28;20088;-68
2021/06/22 07:48:53;;;;;;;6.28;4.03;;;21.90;90.90;;;;;;5109817;28;20437;-69
2021/06/22 07:51:37;;;;;;;6.20;3.60;;;21.90;90.60;;;;;;5108441;28;20031;-68
2021/06/22 07:54:21;;;;;;;6.43;3.65;;;21.90;90.60;;;;;;5110517;28;20508;-69
2021/06/22 07:57:05;;;;;;;6.73;4.00;;;21.90;90.40;;;;;;5087404;28;20081;-68
2021/06/22 07:59:49;;;;;;;7.25;3.58;;;21.80;90.40;;;;;;5109444;28;20385;-69
2021/06/22 08:02:36;;;;;;;4.82;3.20;;;21.80;90.70;;;;;;5108026;28;20848;-72
2021/06/22 08:05:20;;;;;;;6.72;3.33;;;21.80;90.70;;;;;;5088360;28;20386;-69
2021/06/22 08:08:05;;;;;;;8.73;3.60;;;21.80;90.60;;;;;;5112974;28;20038;-69
2021/06/22 08:10:52;;;;;;;8.30;4.18;;;21.90;90.60;;;;;;5097940;28;20577;-68
2021/06/22 08:13:36;;;;;;;7.88;4.18;;;21.80;90.60;;;;;;5111166;28;20372;-69
2021/06/22 08:16:21;;;;;;;6.55;4.10;;;21.90;90.70;;;;;;5112665;28;20447;-68
2021/06/22 08:19:04;;;;;;;5.55;4.07;;;21.90;90.70;;;;;;5113595;28;20078;-69
2021/06/22 08:21:49;;;;;;;11.45;4.55;;;22.00;90.70;;;;;;5113160;28;20081;-68
2021/06/22 08:24:33;;;;;;;14.80;4.15;;;21.90;90.60;;;;;;5113878;28;20494;-69
2021/06/22 08:27:18;;;;;;;9.90;4.47;;;21.90;90.70;;;;;;5113117;28;20083;-69
2021/06/22 08:30:04;;;;;;;4.90;3.80;;;21.80;90.80;;;;;;5113311;28;20070;-69
2021/06/22 08:32:48;;;;;;;5.78;4.20;;;21.70;91.00;;;;;;5105490;28;20043;-69
2021/06/22 08:35:36;;;;;;;7.30;4.30;;;21.80;91.20;;;;;;5106647;28;20076;-69
2021/06/22 08:38:21;;;;;;;8.25;4.90;;;21.70;91.20;;;;;;5112216;28;21078;-69
2021/06/22 08:41:07;;;;;;;8.90;4.75;;;21.70;91.30;;;;;;5112439;28;20387;-69
2021/06/22 08:43:52;;;;;;;6.88;5.32;;;21.70;91.30;;;;;;5112648;28;20399;-69
2021/06/22 08:46:38;;;;;;;8.65;4.80;;;21.70;91.30;;;;;;5106934;28;20551;-69
2021/06/22 08:49:24;;;;;;;7.78;4.70;;;21.70;91.30;;;;;;5111300;28;20119;-69
2021/06/22 08:52:08;;;;;;;8.75;5.55;;;21.50;91.40;;;;;;5112972;27;20045;-69
2021/06/22 08:54:54;;;;;;;9.43;5.60;;;21.40;91.50;;;;;;5112650;28;20030;-69
2021/06/22 08:57:38;;;;;;;8.25;5.65;;;21.40;91.50;;;;;;5111899;28;20070;-69
2021/06/22 09:00:22;;;;;;;9.40;5.47;;;21.40;91.50;;;;;;5110611;28;20062;-69
2021/06/22 09:03:13;;;;;;;6.15;4.78;;;21.30;91.50;;;;;;5110186;28;20127;-69
2021/06/22 09:05:59;;;;;;;6.55;4.20;;;21.30;91.70;;;;;;5106120;28;20675;-70
2021/06/22 09:08:54;;;;;;;8.68;4.90;;;21.30;91.40;;;;;;5109672;28;20042;-69
2021/06/22 09:11:39;;;;;;;;;;;21.20;91.70;;;;;;5110060;28;20043;-68
2021/06/22 09:14:33;;;;;;;8.60;5.20;;;21.20;91.60;;;;;;5111280;28;20390;-69
2021/06/22 09:17:32;;;;;;;5.38;4.15;;;21.20;91.50;;;;;;5106444;28;20312;-68
2021/06/22 09:20:36;;;;;;;7.20;4.40;;;21.10;91.20;;;;;;5106846;28;20041;-69
2021/06/22 09:23:24;;;;;;;5.15;4.22;;;21.10;91.10;;;;;;5110835;28;20081;-69
2021/06/22 09:26:17;;;;;;;6.32;4.20;;;21.00;91.30;;;;;;5103590;28;20046;-69
2021/06/22 09:29:07;;;;;;;8.35;4.30;;;21.00;91.40;;;;;;5111756;28;20073;-69
2021/06/22 09:31:54;;;;;;;6.32;4.30;;;20.90;91.70;;;;;;5107737;28;20039;-68
2021/06/22 09:34:38;;;;;;;7.20;4.05;;;20.80;91.50;;;;;;5112187;28;20076;-68
2021/06/22 09:37:23;;;;;;;5.15;3.92;;;20.70;91.60;;;;;;5104990;28;20042;-69
2021/06/22 09:40:08;;;;;;;5.70;3.85;;;20.70;91.50;;;;;;5110182;28;20848;-69
2021/06/22 09:42:54;;;;;;;7.68;4.00;;;20.70;91.50;;;;;;5109199;28;20057;-69
2021/06/22 09:45:29;;;;;;;10.02;4.35;;;20.70;91.60;;;;;;5108681;28;20027;-55
2021/06/22 09:48:13;;;;;;;17.73;4.13;;;20.60;91.80;;;;;;5094914;28;20121;-57
2021/06/22 09:50:58;;;;;;;8.80;4.60;;;20.80;91.40;;;;;;5095976;28;20105;-57
2021/06/22 09:53:42;;;;;;;;;;;21.00;91.30;;;;;;5107035;28;20382;-55
2021/06/22 09:56:26;;;;;;;5.72;3.83;;;21.10;91.20;;;;;;5111296;28;19915;-58
2021/06/22 09:59:10;;;;;;;6.47;3.37;;;21.10;91.00;;;;;;5105273;28;20070;-57
2021/06/22 10:01:37;;;;;;;8.07;3.80;;;21.20;90.90;;;;;;5108933;28;20289;-56
2021/06/22 10:04:23;;;;;;;6.22;4.18;;;21.30;90.90;;;;;;5110583;28;20036;-57
2021/06/22 10:06:58;;;;;;;7.28;4.15;;;21.40;90.50;;;;;;5098677;28;20277;-57
2021/06/22 10:09:32;;;;;;;5.07;3.55;;;21.40;90.30;;;;;;5113076;28;20081;-56
2021/06/22 10:12:16;;;;;;;5.50;3.67;;;21.40;90.40;;;;;;5110144;28;20046;-58
2021/06/22 10:15:03;;;;;;;8.20;3.70;;;21.50;90.30;;;;;;5088119;28;20085;-59
2021/06/22 10:17:31;;;;;;;8.68;3.40;;;21.60;89.70;;;;;;5107644;27;20046;-57
2021/06/22 10:19:59;;;;;;;7.10;3.78;;;21.60;90.20;;;;;;5109747;27;20475;-57
2021/06/22 10:22:27;;;;;;;7.07;3.90;;;21.70;90.10;;;;;;5101580;28;20027;-56
2021/06/22 10:24:56;;;;;;;12.95;4.28;;;21.90;90.10;;;;;;5108223;28;20019;-57
2021/06/22 10:27:40;;;;;;;11.20;4.50;;;22.10;89.80;;;;;;5110040;28;20046;-56
2021/06/22 10:30:25;;;;;;;8.68;3.70;;;22.30;88.50;;;;;;5109589;28;20073;-56
2021/06/22 10:33:09;;;;;;;5.78;3.38;;;22.30;88.00;;;;;;5109978;28;20055;-55
2021/06/22 10:35:53;;;;;;;13.95;4.93;;;22.30;88.10;;;;;;5109642;28;20057;-56
2021/06/22 10:38:39;;;;;;;8.55;3.47;;;22.40;88.20;;;;;;5107211;28;20043;-55
2021/06/22 10:41:25;;;;;;;13.23;4.10;;;22.50;87.90;;;;;;5103481;28;20026;-54
2021/06/22 10:44:33;;;;;;;9.48;4.10;;;22.70;87.90;;;;;;5097932;27;20034;-53
2021/06/22 10:47:36;;;;;;;7.35;3.95;;;22.80;87.50;;;;;;5108717;28;20084;-53
2021/06/22 10:50:13;;;;;;;6.22;4.07;;;22.90;86.90;;;;;;5109254;28;20024;-50
2021/06/22 10:52:49;;;;;;;6.15;3.83;;;22.80;86.30;;;;;;5112066;28;20117;-55
2021/06/22 10:55:20;;;;;;;10.50;3.70;;;22.90;86.70;;;;;;5111511;28;20031;-56
2021/06/22 11:00:49;;;;;;;4.47;2.80;;;23.00;86.40;;;;;;5110703;28;20118;-55
2021/06/22 11:03:22;;;;;;;9.90;3.60;;;23.00;86.10;;;;;;5111976;28;20098;-55
2021/06/22 11:06:09;;;;;;;6.97;3.80;;;22.90;86.00;;;;;;5110193;28;20074;-55
2021/06/22 11:08:38;;;;;;;5.28;3.60;;;22.90;85.10;;;;;;5107362;27;20045;-54
2021/06/22 11:11:07;;;;;;;9.98;4.25;;;22.90;86.00;;;;;;5120015;27;20387;-56
2021/06/22 11:13:46;;;;;;;4.68;3.88;;;22.80;85.60;;;;;;5111927;28;20509;-52
2021/06/22 11:16:17;;;;;;;5.60;3.65;;;22.80;85.90;;;;;;5110864;28;20383;-55
2021/06/22 11:18:52;;;;;;;6.13;3.50;;;22.80;86.20;;;;;;5109965;28;20027;-53
2021/06/22 11:21:23;;;;;;;6.95;3.45;;;22.80;86.00;;;;;;5109954;28;20367;-55
2021/06/22 11:23:57;;;;;;;8.73;4.22;;;22.90;86.10;;;;;;5111086;28;20382;-55
2021/06/22 11:26:27;;;;;;;7.60;3.95;;;23.10;85.90;;;;;;5102226;28;20455;-57
2021/06/22 11:29:01;;;;;;;5.80;3.80;;;23.10;85.00;;;;;;5102193;28;20511;-53
2021/06/22 11:31:52;;;;;;;5.85;3.70;;;23.00;85.20;;;;;;5111238;28;20555;-56
2021/06/22 11:34:33;;;;;;;6.07;3.20;;;23.00;84.70;;;;;;5093268;28;20116;-54
2021/06/22 11:37:17;;;;;;;7.45;4.13;;;22.90;84.40;;;;;;5110837;28;20046;-54
2021/06/22 11:40:11;;;;;;;7.65;4.00;;;22.90;84.50;;;;;;5106014;28;20043;-55
2021/06/22 11:42:38;;;;;;;5.05;3.70;;;23.00;85.00;;;;;;5113582;28;20332;-52
2021/06/22 11:45:04;;;;;;;7.28;3.55;;;23.10;84.60;;;;;;5115333;28;20058;-53
2021/06/22 11:47:32;;;;;;;8.23;3.55;;;23.20;84.40;;;;;;5113207;27;20059;-53
2021/06/22 11:50:23;;;;;;;4.70;3.42;;;23.40;84.30;;;;;;5112416;28;20050;-56
2021/06/22 11:53:09;;;;;;;5.45;3.53;;;23.50;83.10;;;;;;5114736;28;20043;-53
2021/06/22 11:55:54;;;;;;;6.97;3.63;;;23.50;82.20;;;;;;5105244;28;20592;-55
2021/06/22 11:58:38;;;;;;;5.82;3.70;;;23.50;82.20;;;;;;5114509;28;20045;-55
2021/06/22 12:01:23;;;;;;;5.82;3.20;;;23.50;82.30;;;;;;5115400;28;20462;-53
2021/06/22 12:04:08;;;;;;;6.38;3.42;;;23.50;81.70;;;;;;5114717;28;20411;-55
2021/06/22 12:06:52;;;;;;;8.70;3.92;;;23.50;80.80;;;;;;5113442;28;20502;-53
2021/06/22 12:09:39;;;;;;;6.25;3.65;;;23.40;80.70;;;;;;5115051;28;20046;-54
2021/06/22 12:12:24;;;;;;;8.52;4.28;;;23.20;80.50;;;;;;5112129;28;20042;-54
2021/06/22 12:15:09;;;;;;;5.07;3.42;;;23.00;81.00;;;;;;5113859;28;20034;-54
2021/06/22 12:17:53;;;;;;;6.88;3.75;;;22.90;81.40;;;;;;5099765;28;20096;-54
2021/06/22 12:20:40;;;;;;;6.85;4.18;;;22.80;81.50;;;;;;5114118;28;20031;-55
2021/06/22 12:23:25;;;;;;;9.80;4.15;;;22.70;82.00;;;;;;5113566;28;20046;-52
2021/06/22 12:26:12;;;;;;;6.60;4.20;;;22.70;82.80;;;;;;5109523;28;20107;-52
2021/06/22 12:28:56;;;;;;;5.70;3.85;;;22.70;82.20;;;;;;5109966;27;20058;-54
2021/06/22 12:31:55;;;;;;;5.38;3.22;;;22.60;82.10;;;;;;5112989;28;20138;-52
2021/06/22 12:34:41;;;;;;;7.18;3.90;;;22.50;82.70;;;;;;5096344;28;20100;-55
2021/06/22 12:37:25;;;;;;;7.30;3.75;;;22.50;83.20;;;;;;5109140;28;20088;-54
2021/06/22 12:40:21;;;;;;;5.57;3.40;;;22.60;83.20;;;;;;5110503;27;20100;-56
2021/06/22 12:43:05;;;;;;;6.80;3.13;;;22.70;82.90;;;;;;5114732;28;20330;-53
2021/06/22 12:46:04;;;;;;;5.20;3.22;;;22.70;81.80;;;;;;5114998;28;20039;-55
2021/06/22 12:49:01;;;;;;;5.47;3.30;;;22.70;82.00;;;;;;5114614;28;20038;-54
2021/06/22 12:51:48;;;;;;;6.07;3.60;;;22.70;81.60;;;;;;5113352;28;20593;-56
2021/06/22 12:54:36;;;;;;;6.80;3.88;;;22.70;81.40;;;;;;5113186;28;20134;-54
2021/06/22 12:57:22;;;;;;;7.03;2.83;;;22.80;82.20;;;;;;5112627;28;20034;-55
2021/06/22 13:00:07;;;;;;;8.48;3.30;;;23.00;82.00;;;;;;5113339;28;20038;-55
2021/06/22 13:02:51;;;;;;;7.72;3.25;;;23.20;82.20;;;;;;5114664;28;20111;-56
2021/06/22 13:05:36;;;;;;;7.28;3.78;;;23.40;81.20;;;;;;5106074;28;20055;-54
2021/06/22 13:08:23;;;;;;;6.15;3.55;;;23.30;80.40;;;;;;5099976;28;20035;-52
2021/06/22 13:11:07;;;;;;;5.60;3.35;;;23.30;79.90;;;;;;5110745;28;20042;-51
2021/06/22 13:13:51;;;;;;;8.88;3.17;;;23.40;80.70;;;;;;5110365;28;20109;-55
2021/06/22 13:16:35;;;;;;;7.15;3.80;;;23.50;79.90;;;;;;5107784;28;20042;-56
2021/06/22 13:19:20;;;;;;;5.40;2.90;;;23.60;79.50;;;;;;5095162;28;20051;-54
2021/06/22 13:22:06;;;;;;;5.53;3.22;;;23.60;79.50;;;;;;5113911;28;20457;-56
2021/06/22 13:24:53;;;;;;;7.03;3.72;;;23.60;79.10;;;;;;5113165;28;20131;-51
2021/06/22 13:27:47;;;;;;;8.70;2.78;;;23.50;77.80;;;;;;5107893;28;20047;-53
2021/06/22 13:30:32;;;;;;;7.95;3.25;;;23.40;78.70;;;;;;5111337;28;20030;-50
2021/06/22 13:33:21;;;;;;;7.78;4.05;;;23.50;79.10;;;;;;5112626;28;20043;-52
2021/06/22 13:36:05;;;;;;;5.32;3.00;;;23.70;79.10;;;;;;5102173;28;20092;-54
2021/06/22 13:39:06;;;;;;;5.43;3.20;;;23.80;77.50;;;;;;5113306;28;20061;-53
2021/06/22 13:41:53;;;;;;;15.15;9.95;;;23.80;76.90;;;;;;5114014;28;20093;-47
2021/06/22 13:44:41;;;;;;;6.75;4.28;;;23.80;77.30;;;;;;5111507;28;20032;-52
2021/06/22 13:47:44;;;;;;;5.55;3.30;;;23.80;77.10;;;;;;5112978;27;20433;-58
2021/06/22 13:50:29;;;;;;;15.55;8.65;;;23.80;76.30;;;;;;5093114;28;20035;-55
2021/06/22 13:53:21;;;;;;;;;;;23.70;77.20;;;;;;5097202;28;20042;-55
2021/06/22 13:56:16;;;;;;;4.60;3.30;;;23.70;76.70;;;;;;5110134;28;19972;-55
2021/06/22 13:59:01;;;;;;;4.50;2.97;;;23.60;76.60;;;;;;5100875;28;20674;-56
2021/06/22 14:01:46;;;;;;;6.63;3.20;;;23.50;76.10;;;;;;5097045;28;20039;-52
2021/06/22 14:04:30;;;;;;;6.47;3.03;;;23.50;76.80;;;;;;5110554;28;20050;-55
2021/06/22 14:07:14;;;;;;;5.35;3.20;;;23.50;76.50;;;;;;5107247;28;20047;-55
2021/06/22 14:09:58;;;;;;;9.20;3.25;;;23.40;76.50;;;;;;5101590;28;20540;-54
2021/06/22 14:12:43;;;;;;;7.88;3.25;;;23.30;76.90;;;;;;5112734;28;20057;-56
2021/06/22 14:15:27;;;;;;;;;;;23.10;77.10;;;;;;5091243;28;20085;-54